sensor_id;sensor_type;location;lat;lon;timestamp;pressure;altitude;pressure_sealevel;temperature;humidity
11621;BME280;5866;49.094;11.900;2024-02-21T00:02:21;97111.56;;;8.02;100.00
11621;BME280;5866;49.094;11.900;2024-02-21T00:04:48;97109.84;;;8.12;100.00
11621;BME280;5866;49.094;11.900;2024-02-21T00:07:16;97104.69;;;8.42;100.00
11621;BME280;5866;49.094;11.900;2024-02-21T00:09:44;97098.91;;;8.48;100.00
11621;BME280;5866;49.094;11.900;2024-02-21T00:12:11;97103.03;;;8.62;100.00
11621;BME280;5866;49.094;11.900;2024-02-21T00:14:40;97096.28;;;8.90;97.46
11621;BME280;5866;49.094;11.900;2024-02-21T00:17:09;97093.34;;;8.93;95.05
11621;BME280;5866;49.094;11.900;2024-02-21T00:19:37;97092.94;;;8.67;97.50
11621;BME280;5866;49.094;11.900;2024-02-21T00:22:04;97086.34;;;8.61;97.86
11621;BME280;5866;49.094;11.900;2024-02-21T00:24:32;97085.91;;;8.56;97.25
11621;BME280;5866;49.094;11.900;2024-02-21T00:26:59;97085.81;;;8.47;99.48
11621;BME280;5866;49.094;11.900;2024-02-21T00:29:27;97077.16;;;8.45;99.43
11621;BME280;5866;49.094;11.900;2024-02-21T00:31:54;97081.09;;;8.30;100.00
11621;BME280;5866;49.094;11.900;2024-02-21T00:34:23;97072.66;;;8.36;100.00
11621;BME280;5866;49.094;11.900;2024-02-21T00:36:51;97065.25;;;8.50;100.00
11621;BME280;5866;49.094;11.900;2024-02-21T00:39:19;97070.09;;;8.66;98.08
11621;BME280;5866;49.094;11.900;2024-02-21T00:41:46;97070.72;;;8.06;100.00
11621;BME280;5866;49.094;11.900;2024-02-21T00:44:14;97060.94;;;7.86;100.00
11621;BME280;5866;49.094;11.900;2024-02-21T00:46:41;97062.22;;;8.23;100.00
11621;BME280;5866;49.094;11.900;2024-02-21T00:49:09;97057.44;;;8.69;99.60
11621;BME280;5866;49.094;11.900;2024-02-21T00:51:38;97055.06;;;8.25;100.00
11621;BME280;5866;49.094;11.900;2024-02-21T00:54:05;97055.19;;;8.44;100.00
11621;BME280;5866;49.094;11.900;2024-02-21T00:56:33;97054.59;;;8.41;100.00
11621;BME280;5866;49.094;11.900;2024-02-21T00:59:01;97053.53;;;8.43;99.87
11621;BME280;5866;49.094;11.900;2024-02-21T01:01:28;97051.31;;;8.48;99.70
11621;BME280;5866;49.094;11.900;2024-02-21T01:03:56;97049.50;;;8.28;100.00
11621;BME280;5866;49.094;11.900;2024-02-21T01:06:24;97047.06;;;8.36;100.00
11621;BME280;5866;49.094;11.900;2024-02-21T01:08:53;97042.38;;;8.08;100.00
11621;BME280;5866;49.094;11.900;2024-02-21T01:11:21;97047.00;;;7.84;100.00
11621;BME280;5866;49.094;11.900;2024-02-21T01:13:48;97047.34;;;8.22;100.00
11621;BME280;5866;49.094;11.900;2024-02-21T01:16:16;97046.69;;;8.41;100.00
11621;BME280;5866;49.094;11.900;2024-02-21T01:18:44;97041.09;;;7.60;100.00
11621;BME280;5866;49.094;11.900;2024-02-21T01:21:11;97033.97;;;8.03;100.00
11621;BME280;5866;49.094;11.900;2024-02-21T01:23:39;97027.28;;;8.31;100.00
11621;BME280;5866;49.094;11.900;2024-02-21T01:26:08;97031.97;;;8.27;100.00
11621;BME280;5866;49.094;11.900;2024-02-21T01:28:39;97024.13;;;8.05;100.00
11621;BME280;5866;49.094;11.900;2024-02-21T01:31:07;97018.78;;;8.16;100.00
11621;BME280;5866;49.094;11.900;2024-02-21T01:33:35;97025.72;;;8.28;100.00
11621;BME280;5866;49.094;11.900;2024-02-21T01:36:03;97023.88;;;8.08;100.00
11621;BME280;5866;49.094;11.900;2024-02-21T01:38:33;97023.59;;;8.11;100.00
11621;BME280;5866;49.094;11.900;2024-02-21T01:41:00;97011.09;;;8.13;100.00
11621;BME280;5866;49.094;11.900;2024-02-21T01:43:29;97009.72;;;7.98;100.00
11621;BME280;5866;49.094;11.900;2024-02-21T01:45:57;97004.66;;;8.06;100.00
11621;BME280;5866;49.094;11.900;2024-02-21T01:48:25;97003.88;;;8.26;100.00
11621;BME280;5866;49.094;11.900;2024-02-21T01:50:54;96997.53;;;8.38;100.00
11621;BME280;5866;49.094;11.900;2024-02-21T01:53:23;97001.69;;;8.31;100.00
11621;BME280;5866;49.094;11.900;2024-02-21T01:55:52;96994.22;;;8.04;100.00
11621;BME280;5866;49.094;11.900;2024-02-21T01:58:20;96992.97;;;7.88;100.00
11621;BME280;5866;49.094;11.900;2024-02-21T02:00:50;96991.19;;;7.88;100.00
11621;BME280;5866;49.094;11.900;2024-02-21T02:03:18;96999.59;;;8.14;100.00
11621;BME280;5866;49.094;11.900;2024-02-21T02:05:45;96986.28;;;7.84;100.00
11621;BME280;5866;49.094;11.900;2024-02-21T02:08:13;96979.84;;;8.18;100.00
11621;BME280;5866;49.094;11.900;2024-02-21T02:10:41;96981.47;;;8.10;100.00
11621;BME280;5866;49.094;11.900;2024-02-21T02:13:09;96973.59;;;8.19;100.00
11621;BME280;5866;49.094;11.900;2024-02-21T02:15:38;96961.34;;;8.29;100.00
11621;BME280;5866;49.094;11.900;2024-02-21T02:18:07;96970.94;;;8.19;100.00
11621;BME280;5866;49.094;11.900;2024-02-21T02:20:35;96961.06;;;8.32;100.00
11621;BME280;5866;49.094;11.900;2024-02-21T02:23:07;96966.34;;;7.80;100.00
11621;BME280;5866;49.094;11.900;2024-02-21T02:25:36;96954.34;;;7.87;100.00
11621;BME280;5866;49.094;11.900;2024-02-21T02:28:06;96955.69;;;7.50;100.00
11621;BME280;5866;49.094;11.900;2024-02-21T02:30:34;96952.81;;;7.42;100.00
11621;BME280;5866;49.094;11.900;2024-02-21T02:33:02;96948.88;;;7.36;100.00
11621;BME280;5866;49.094;11.900;2024-02-21T02:35:30;96951.50;;;7.47;100.00
11621;BME280;5866;49.094;11.900;2024-02-21T02:37:58;96944.53;;;7.46;100.00
11621;BME280;5866;49.094;11.900;2024-02-21T02:40:26;96938.47;;;7.35;100.00
11621;BME280;5866;49.094;11.900;2024-02-21T02:42:55;96940.06;;;7.26;100.00
11621;BME280;5866;49.094;11.900;2024-02-21T02:45:23;96937.66;;;7.55;100.00
11621;BME280;5866;49.094;11.900;2024-02-21T02:47:52;96926.44;;;7.42;100.00
11621;BME280;5866;49.094;11.900;2024-02-21T02:50:21;96932.56;;;6.88;100.00
11621;BME280;5866;49.094;11.900;2024-02-21T02:52:49;96937.31;;;7.16;100.00
11621;BME280;5866;49.094;11.900;2024-02-21T02:55:17;96940.94;;;7.04;100.00
11621;BME280;5866;49.094;11.900;2024-02-21T02:57:45;96935.78;;;7.03;100.00
11621;BME280;5866;49.094;11.900;2024-02-21T03:00:14;96930.78;;;7.32;100.00
11621;BME280;5866;49.094;11.900;2024-02-21T03:02:44;96930.59;;;7.12;100.00
11621;BME280;5866;49.094;11.900;2024-02-21T03:05:13;96928.16;;;6.89;100.00
11621;BME280;5866;49.094;11.900;2024-02-21T03:07:42;96931.63;;;6.56;100.00
11621;BME280;5866;49.094;11.900;2024-02-21T03:10:11;96926.13;;;6.37;100.00
11621;BME280;5866;49.094;11.900;2024-02-21T03:12:39;96924.44;;;6.58;100.00
11621;BME280;5866;49.094;11.900;2024-02-21T03:15:07;96931.53;;;6.47;100.00
11621;BME280;5866;49.094;11.900;2024-02-21T03:17:36;96930.91;;;6.43;100.00
11621;BME280;5866;49.094;11.900;2024-02-21T03:20:05;96925.41;;;6.35;100.00
11621;BME280;5866;49.094;11.900;2024-02-21T03:22:35;96923.75;;;6.45;100.00
11621;BME280;5866;49.094;11.900;2024-02-21T03:25:04;96921.59;;;6.28;100.00
11621;BME280;5866;49.094;11.900;2024-02-21T03:27:33;96920.38;;;6.21;100.00
11621;BME280;5866;49.094;11.900;2024-02-21T03:30:01;96909.69;;;6.56;100.00
11621;BME280;5866;49.094;11.900;2024-02-21T03:32:28;96907.81;;;6.58;100.00
11621;BME280;5866;49.094;11.900;2024-02-21T03:34:57;96906.00;;;6.69;100.00
11621;BME280;5866;49.094;11.900;2024-02-21T03:37:25;96909.94;;;6.75;100.00
11621;BME280;5866;49.094;11.900;2024-02-21T03:39:53;96908.56;;;6.91;100.00
11621;BME280;5866;49.094;11.900;2024-02-21T03:42:20;96899.91;;;7.11;100.00
11621;BME280;5866;49.094;11.900;2024-02-21T03:44:48;96901.34;;;7.15;100.00
11621;BME280;5866;49.094;11.900;2024-02-21T03:47:16;96897.06;;;7.03;100.00
11621;BME280;5866;49.094;11.900;2024-02-21T03:49:43;96911.69;;;6.96;100.00
11621;BME280;5866;49.094;11.900;2024-02-21T03:52:12;96909.03;;;7.07;100.00
11621;BME280;5866;49.094;11.900;2024-02-21T03:54:40;96903.56;;;6.99;100.00
11621;BME280;5866;49.094;11.900;2024-02-21T03:57:07;96901.28;;;6.95;100.00
11621;BME280;5866;49.094;11.900;2024-02-21T03:59:35;96901.84;;;7.09;100.00
11621;BME280;5866;49.094;11.900;2024-02-21T04:02:02;96903.56;;;6.88;100.00
11621;BME280;5866;49.094;11.900;2024-02-21T04:04:35;96900.94;;;6.88;100.00
11621;BME280;5866;49.094;11.900;2024-02-21T04:07:03;96893.97;;;6.87;100.00
11621;BME280;5866;49.094;11.900;2024-02-21T04:09:34;96907.28;;;6.75;100.00
11621;BME280;5866;49.094;11.900;2024-02-21T04:12:01;96900.59;;;6.82;100.00
11621;BME280;5866;49.094;11.900;2024-02-21T04:14:29;96904.78;;;6.84;100.00
11621;BME280;5866;49.094;11.900;2024-02-21T04:16:57;96906.78;;;6.92;100.00
11621;BME280;5866;49.094;11.900;2024-02-21T04:19:24;96886.28;;;6.95;100.00
11621;BME280;5866;49.094;11.900;2024-02-21T04:21:52;96885.56;;;6.93;100.00
11621;BME280;5866;49.094;11.900;2024-02-21T04:24:19;96879.50;;;7.25;100.00
11621;BME280;5866;49.094;11.900;2024-02-21T04:26:48;96882.81;;;6.95;100.00
11621;BME280;5866;49.094;11.900;2024-02-21T04:29:16;96878.84;;;7.00;100.00
11621;BME280;5866;49.094;11.900;2024-02-21T04:31:44;96884.53;;;7.16;100.00
11621;BME280;5866;49.094;11.900;2024-02-21T04:34:11;96884.31;;;7.08;100.00
11621;BME280;5866;49.094;11.900;2024-02-21T04:36:39;96879.34;;;6.94;100.00
11621;BME280;5866;49.094;11.900;2024-02-21T04:39:07;96875.28;;;6.79;100.00
11621;BME280;5866;49.094;11.900;2024-02-21T04:41:34;96866.50;;;6.47;100.00
11621;BME280;5866;49.094;11.900;2024-02-21T04:44:03;96866.22;;;6.50;100.00
11621;BME280;5866;49.094;11.900;2024-02-21T04:46:31;96860.75;;;6.53;100.00
11621;BME280;5866;49.094;11.900;2024-02-21T04:48:59;96859.31;;;6.49;100.00
11621;BME280;5866;49.094;11.900;2024-02-21T04:51:26;96860.88;;;6.40;100.00
11621;BME280;5866;49.094;11.900;2024-02-21T04:53:54;96864.28;;;6.74;100.00
11621;BME280;5866;49.094;11.900;2024-02-21T04:56:21;96854.97;;;6.59;100.00
11621;BME280;5866;49.094;11.900;2024-02-21T04:58:49;96852.78;;;6.75;100.00
11621;BME280;5866;49.094;11.900;2024-02-21T05:01:18;96850.34;;;6.83;100.00
11621;BME280;5866;49.094;11.900;2024-02-21T05:03:46;96846.66;;;6.75;100.00
11621;BME280;5866;49.094;11.900;2024-02-21T05:06:13;96846.31;;;6.68;100.00
11621;BME280;5866;49.094;11.900;2024-02-21T05:08:41;96836.88;;;6.66;100.00
11621;BME280;5866;49.094;11.900;2024-02-21T05:11:08;96843.16;;;6.85;100.00
11621;BME280;5866;49.094;11.900;2024-02-21T05:13:36;96834.09;;;6.67;100.00
11621;BME280;5866;49.094;11.900;2024-02-21T05:16:04;96832.69;;;6.63;100.00
11621;BME280;5866;49.094;11.900;2024-02-21T05:18:33;96816.88;;;6.63;100.00
11621;BME280;5866;49.094;11.900;2024-02-21T05:21:01;96820.78;;;6.69;100.00
11621;BME280;5866;49.094;11.900;2024-02-21T05:23:29;96814.94;;;6.65;100.00
11621;BME280;5866;49.094;11.900;2024-02-21T05:25:56;96812.53;;;6.73;100.00
11621;BME280;5866;49.094;11.900;2024-02-21T05:28:24;96813.53;;;6.39;100.00
11621;BME280;5866;49.094;11.900;2024-02-21T05:30:52;96815.81;;;6.43;100.00
11621;BME280;5866;49.094;11.900;2024-02-21T05:33:19;96811.38;;;6.44;100.00
11621;BME280;5866;49.094;11.900;2024-02-21T05:35:50;96806.91;;;6.67;100.00
11621;BME280;5866;49.094;11.900;2024-02-21T05:38:18;96808.81;;;6.65;100.00
11621;BME280;5866;49.094;11.900;2024-02-21T05:40:45;96803.56;;;6.65;100.00
11621;BME280;5866;49.094;11.900;2024-02-21T05:43:13;96804.13;;;6.68;100.00
11621;BME280;5866;49.094;11.900;2024-02-21T05:45:41;96797.44;;;6.64;100.00
11621;BME280;5866;49.094;11.900;2024-02-21T05:48:08;96797.13;;;6.58;100.00
11621;BME280;5866;49.094;11.900;2024-02-21T05:50:36;96803.97;;;6.81;100.00
11621;BME280;5866;49.094;11.900;2024-02-21T05:53:05;96792.84;;;6.77;100.00
11621;BME280;5866;49.094;11.900;2024-02-21T05:55:32;96795.81;;;6.84;100.00
11621;BME280;5866;49.094;11.900;2024-02-21T05:58:01;96795.19;;;6.91;100.00
11621;BME280;5866;49.094;11.900;2024-02-21T06:00:29;96787.78;;;7.17;100.00
11621;BME280;5866;49.094;11.900;2024-02-21T06:02:57;96798.84;;;7.32;100.00
11621;BME280;5866;49.094;11.900;2024-02-21T06:05:25;96787.84;;;7.27;100.00
11621;BME280;5866;49.094;11.900;2024-02-21T06:07:52;96783.47;;;7.57;100.00
11621;BME280;5866;49.094;11.900;2024-02-21T06:10:21;96781.72;;;7.47;100.00
11621;BME280;5866;49.094;11.900;2024-02-21T06:12:49;96781.97;;;7.44;100.00
11621;BME280;5866;49.094;11.900;2024-02-21T06:15:16;96781.28;;;7.42;100.00
11621;BME280;5866;49.094;11.900;2024-02-21T06:17:44;96783.81;;;7.43;100.00
11621;BME280;5866;49.094;11.900;2024-02-21T06:20:11;96779.16;;;7.36;100.00
11621;BME280;5866;49.094;11.900;2024-02-21T06:22:39;96785.66;;;7.32;100.00
11621;BME280;5866;49.094;11.900;2024-02-21T06:25:07;96792.47;;;7.13;100.00
11621;BME280;5866;49.094;11.900;2024-02-21T06:27:36;96801.41;;;7.01;100.00
11621;BME280;5866;49.094;11.900;2024-02-21T06:30:05;96797.78;;;7.02;100.00
11621;BME280;5866;49.094;11.900;2024-02-21T06:32:33;96804.63;;;7.26;100.00
11621;BME280;5866;49.094;11.900;2024-02-21T06:35:00;96804.66;;;6.94;100.00
11621;BME280;5866;49.094;11.900;2024-02-21T06:37:29;96809.69;;;7.29;100.00
11621;BME280;5866;49.094;11.900;2024-02-21T06:39:58;96801.34;;;7.33;100.00
11621;BME280;5866;49.094;11.900;2024-02-21T06:42:26;96804.75;;;7.03;100.00
11621;BME280;5866;49.094;11.900;2024-02-21T06:44:55;96813.66;;;6.91;100.00
11621;BME280;5866;49.094;11.900;2024-02-21T06:47:23;96810.66;;;7.16;100.00
11621;BME280;5866;49.094;11.900;2024-02-21T06:49:51;96813.44;;;7.15;100.00
11621;BME280;5866;49.094;11.900;2024-02-21T06:52:18;96807.09;;;7.59;100.00
11621;BME280;5866;49.094;11.900;2024-02-21T06:54:47;96795.69;;;8.39;100.00
11621;BME280;5866;49.094;11.900;2024-02-21T06:57:14;96789.53;;;8.29;100.00
11621;BME280;5866;49.094;11.900;2024-02-21T06:59:42;96795.41;;;8.12;100.00
11621;BME280;5866;49.094;11.900;2024-02-21T07:02:11;96792.25;;;7.88;100.00
11621;BME280;5866;49.094;11.900;2024-02-21T07:04:39;96797.94;;;7.63;100.00
11621;BME280;5866;49.094;11.900;2024-02-21T07:07:06;96787.66;;;7.90;100.00
11621;BME280;5866;49.094;11.900;2024-02-21T07:09:34;96804.00;;;7.54;100.00
11621;BME280;5866;49.094;11.900;2024-02-21T07:12:02;96807.38;;;7.56;100.00
11621;BME280;5866;49.094;11.900;2024-02-21T07:14:32;96811.31;;;7.71;100.00
11621;BME280;5866;49.094;11.900;2024-02-21T07:16:59;96821.13;;;7.39;100.00
11621;BME280;5866;49.094;11.900;2024-02-21T07:19:28;96822.16;;;7.47;100.00
11621;BME280;5866;49.094;11.900;2024-02-21T07:21:56;96822.00;;;7.90;100.00
11621;BME280;5866;49.094;11.900;2024-02-21T07:24:24;96824.91;;;7.25;100.00
11621;BME280;5866;49.094;11.900;2024-02-21T07:26:52;96825.91;;;6.81;100.00
11621;BME280;5866;49.094;11.900;2024-02-21T07:29:19;96832.44;;;6.98;100.00
11621;BME280;5866;49.094;11.900;2024-02-21T07:31:47;96833.53;;;6.95;100.00
11621;BME280;5866;49.094;11.900;2024-02-21T07:34:15;96820.44;;;7.37;100.00
11621;BME280;5866;49.094;11.900;2024-02-21T07:36:44;96811.31;;;7.71;100.00
11621;BME280;5866;49.094;11.900;2024-02-21T07:39:12;96804.19;;;7.82;100.00
11621;BME280;5866;49.094;11.900;2024-02-21T07:41:39;96801.50;;;8.03;100.00
11621;BME280;5866;49.094;11.900;2024-02-21T07:44:09;96797.63;;;8.37;100.00
11621;BME280;5866;49.094;11.900;2024-02-21T07:46:37;96791.19;;;8.89;100.00
11621;BME280;5866;49.094;11.900;2024-02-21T07:49:04;96800.13;;;9.17;100.00
11621;BME280;5866;49.094;11.900;2024-02-21T07:51:32;96784.34;;;10.09;94.58
11621;BME280;5866;49.094;11.900;2024-02-21T07:54:01;96776.44;;;10.99;86.84
11621;BME280;5866;49.094;11.900;2024-02-21T07:56:30;96749.59;;;11.80;76.65
11621;BME280;5866;49.094;11.900;2024-02-21T07:58:58;96753.88;;;12.41;69.31
11621;BME280;5866;49.094;11.900;2024-02-21T08:01:26;96746.00;;;12.65;67.08
11621;BME280;5866;49.094;11.900;2024-02-21T08:03:53;96744.13;;;13.31;64.47
11621;BME280;5866;49.094;11.900;2024-02-21T08:06:21;96732.44;;;13.73;61.08
11621;BME280;5866;49.094;11.900;2024-02-21T08:08:49;96735.28;;;13.63;60.95
11621;BME280;5866;49.094;11.900;2024-02-21T08:11:18;96733.06;;;13.91;59.68
11621;BME280;5866;49.094;11.900;2024-02-21T08:13:46;96724.84;;;14.08;58.65
11621;BME280;5866;49.094;11.900;2024-02-21T08:16:13;96737.19;;;14.09;59.32
11621;BME280;5866;49.094;11.900;2024-02-21T08:18:41;96732.94;;;14.39;57.71
11621;BME280;5866;49.094;11.900;2024-02-21T08:21:10;96743.72;;;14.54;57.50
11621;BME280;5866;49.094;11.900;2024-02-21T08:23:38;96736.66;;;14.22;57.58
11621;BME280;5866;49.094;11.900;2024-02-21T08:26:05;96746.06;;;14.57;57.48
11621;BME280;5866;49.094;11.900;2024-02-21T08:28:34;96737.38;;;15.16;55.41
11621;BME280;5866;49.094;11.900;2024-02-21T08:31:03;96721.72;;;15.73;54.15
11621;BME280;5866;49.094;11.900;2024-02-21T08:33:31;96725.75;;;15.69;53.76
11621;BME280;5866;49.094;11.900;2024-02-21T08:35:58;96724.03;;;15.90;52.87
11621;BME280;5866;49.094;11.900;2024-02-21T08:38:26;96730.78;;;15.27;53.21
11621;BME280;5866;49.094;11.900;2024-02-21T08:40:53;96739.19;;;15.38;53.36
11621;BME280;5866;49.094;11.900;2024-02-21T08:43:21;96734.19;;;15.95;53.69
11621;BME280;5866;49.094;11.900;2024-02-21T08:45:50;96735.69;;;15.38;52.44
11621;BME280;5866;49.094;11.900;2024-02-21T08:48:17;96738.50;;;14.60;53.90
11621;BME280;5866;49.094;11.900;2024-02-21T08:50:45;96733.78;;;13.04;58.11
11621;BME280;5866;49.094;11.900;2024-02-21T08:53:13;96727.16;;;13.40;57.60
11621;BME280;5866;49.094;11.900;2024-02-21T08:55:40;96730.19;;;12.71;59.06
11621;BME280;5866;49.094;11.900;2024-02-21T08:58:10;96716.66;;;13.23;59.05
11621;BME280;5866;49.094;11.900;2024-02-21T09:00:38;96707.44;;;13.74;57.13
11621;BME280;5866;49.094;11.900;2024-02-21T09:03:07;96698.69;;;14.04;56.44
11621;BME280;5866;49.094;11.900;2024-02-21T09:05:35;96700.16;;;14.61;54.99
11621;BME280;5866;49.094;11.900;2024-02-21T09:08:03;96688.66;;;13.43;57.06
11621;BME280;5866;49.094;11.900;2024-02-21T09:10:31;96684.38;;;13.89;57.67
11621;BME280;5866;49.094;11.900;2024-02-21T09:12:58;96691.16;;;14.15;56.10
11621;BME280;5866;49.094;11.900;2024-02-21T09:15:26;96685.31;;;14.12;56.32
11621;BME280;5866;49.094;11.900;2024-02-21T09:17:56;96686.88;;;14.45;55.84
11621;BME280;5866;49.094;11.900;2024-02-21T09:20:25;96698.38;;;13.91;57.06
11621;BME280;5866;49.094;11.900;2024-02-21T09:22:53;96700.19;;;13.19;58.49
11621;BME280;5866;49.094;11.900;2024-02-21T09:25:21;96693.59;;;14.25;57.50
11621;BME280;5866;49.094;11.900;2024-02-21T09:27:48;96689.66;;;14.13;55.84
11621;BME280;5866;49.094;11.900;2024-02-21T09:30:18;96685.69;;;14.09;55.84
11621;BME280;5866;49.094;11.900;2024-02-21T09:32:46;96685.06;;;13.99;56.31
11621;BME280;5866;49.094;11.900;2024-02-21T09:35:14;96687.69;;;13.36;57.21
11621;BME280;5866;49.094;11.900;2024-02-21T09:37:44;96684.66;;;13.31;58.37
11621;BME280;5866;49.094;11.900;2024-02-21T09:40:15;96685.50;;;13.31;60.58
11621;BME280;5866;49.094;11.900;2024-02-21T09:42:43;96686.53;;;13.93;57.54
11621;BME280;5866;49.094;11.900;2024-02-21T09:45:18;96686.09;;;14.67;55.48
11621;BME280;5866;49.094;11.900;2024-02-21T09:47:53;96674.69;;;14.73;55.43
11621;BME280;5866;49.094;11.900;2024-02-21T09:50:24;96673.84;;;15.93;53.01
11621;BME280;5866;49.094;11.900;2024-02-21T09:52:55;96668.88;;;15.75;51.78
11621;BME280;5866;49.094;11.900;2024-02-21T09:55:24;96662.59;;;15.82;50.76
11621;BME280;5866;49.094;11.900;2024-02-21T09:57:54;96666.13;;;15.83;50.95
11621;BME280;5866;49.094;11.900;2024-02-21T10:00:22;96667.81;;;16.63;49.54
11621;BME280;5866;49.094;11.900;2024-02-21T10:02:49;96660.44;;;17.08;48.03
11621;BME280;5866;49.094;11.900;2024-02-21T10:05:17;96659.59;;;16.65;48.47
11621;BME280;5866;49.094;11.900;2024-02-21T10:07:45;96663.81;;;14.52;54.74
11621;BME280;5866;49.094;11.900;2024-02-21T10:10:14;96650.53;;;14.89;51.76
11621;BME280;5866;49.094;11.900;2024-02-21T10:12:49;96657.81;;;14.50;52.10
11621;BME280;5866;49.094;11.900;2024-02-21T10:15:20;96653.19;;;15.35;49.67
11621;BME280;5866;49.094;11.900;2024-02-21T10:17:49;96656.31;;;15.75;49.99
11621;BME280;5866;49.094;11.900;2024-02-21T10:20:17;96658.38;;;13.12;55.72
11621;BME280;5866;49.094;11.900;2024-02-21T10:22:44;96662.81;;;12.71;56.57
11621;BME280;5866;49.094;11.900;2024-02-21T10:25:14;96666.84;;;12.91;56.62
11621;BME280;5866;49.094;11.900;2024-02-21T10:27:42;96664.47;;;12.56;57.96
11621;BME280;5866;49.094;11.900;2024-02-21T10:30:13;96653.47;;;13.55;55.24
11621;BME280;5866;49.094;11.900;2024-02-21T10:32:49;96646.22;;;14.27;52.94
11621;BME280;5866;49.094;11.900;2024-02-21T10:35:26;96640.22;;;14.86;51.20
11621;BME280;5866;49.094;11.900;2024-02-21T10:37:54;96635.44;;;15.56;50.06
11621;BME280;5866;49.094;11.900;2024-02-21T10:40:25;96632.88;;;15.26;49.54
11621;BME280;5866;49.094;11.900;2024-02-21T10:42:57;96620.53;;;15.91;48.89
11621;BME280;5866;49.094;11.900;2024-02-21T10:45:29;96613.50;;;15.46;49.60
11621;BME280;5866;49.094;11.900;2024-02-21T10:48:08;96615.38;;;15.60;49.68
11621;BME280;5866;49.094;11.900;2024-02-21T10:50:55;96606.81;;;14.90;49.06
11621;BME280;5866;49.094;11.900;2024-02-21T10:53:34;96602.38;;;15.20;48.89
11621;BME280;5866;49.094;11.900;2024-02-21T10:56:11;96603.00;;;15.07;49.13
11621;BME280;5866;49.094;11.900;2024-02-21T10:58:44;96585.91;;;14.94;49.46
11621;BME280;5866;49.094;11.900;2024-02-21T11:01:13;96589.34;;;15.02;49.62
11621;BME280;5866;49.094;11.900;2024-02-21T11:03:41;96587.69;;;14.56;50.93
11621;BME280;5866;49.094;11.900;2024-02-21T11:06:11;96578.53;;;14.28;50.87
11621;BME280;5866;49.094;11.900;2024-02-21T11:08:39;96574.28;;;14.42;51.75
11621;BME280;5866;49.094;11.900;2024-02-21T11:11:08;96578.13;;;14.39;51.86
11621;BME280;5866;49.094;11.900;2024-02-21T11:14:07;96566.34;;;14.56;50.38
11621;BME280;5866;49.094;11.900;2024-02-21T11:16:36;96566.94;;;14.89;50.28
11621;BME280;5866;49.094;11.900;2024-02-21T11:19:09;96562.41;;;15.41;49.77
11621;BME280;5866;49.094;11.900;2024-02-21T11:21:38;96558.63;;;15.79;45.96
11621;BME280;5866;49.094;11.900;2024-02-21T11:24:08;96550.47;;;15.52;46.74
11621;BME280;5866;49.094;11.900;2024-02-21T11:26:38;96540.25;;;16.06;45.26
11621;BME280;5866;49.094;11.900;2024-02-21T11:29:05;96534.78;;;15.49;45.49
11621;BME280;5866;49.094;11.900;2024-02-21T11:31:39;96520.28;;;16.44;45.29
11621;BME280;5866;49.094;11.900;2024-02-21T11:34:09;96516.13;;;16.41;43.87
11621;BME280;5866;49.094;11.900;2024-02-21T11:36:46;96518.81;;;16.41;45.94
11621;BME280;5866;49.094;11.900;2024-02-21T11:39:18;96513.84;;;16.81;43.82
11621;BME280;5866;49.094;11.900;2024-02-21T11:41:47;96513.88;;;16.24;44.23
11621;BME280;5866;49.094;11.900;2024-02-21T11:44:15;96505.34;;;16.14;43.91
11621;BME280;5866;49.094;11.900;2024-02-21T11:46:42;96501.47;;;15.80;44.83
11621;BME280;5866;49.094;11.900;2024-02-21T11:49:10;96498.38;;;15.98;44.66
11621;BME280;5866;49.094;11.900;2024-02-21T11:51:38;96502.09;;;16.18;45.01
11621;BME280;5866;49.094;11.900;2024-02-21T11:54:05;96488.31;;;16.42;44.07
11621;BME280;5866;49.094;11.900;2024-02-21T11:56:34;96482.09;;;16.78;43.37
11621;BME280;5866;49.094;11.900;2024-02-21T11:59:03;96473.44;;;16.82;42.78
11621;BME280;5866;49.094;11.900;2024-02-21T12:01:33;96467.53;;;16.44;42.53
11621;BME280;5866;49.094;11.900;2024-02-21T12:04:01;96469.34;;;16.16;42.68
11621;BME280;5866;49.094;11.900;2024-02-21T12:06:29;96472.19;;;15.29;44.19
11621;BME280;5866;49.094;11.900;2024-02-21T12:08:59;96465.63;;;15.60;44.98
11621;BME280;5866;49.094;11.900;2024-02-21T12:11:28;96464.84;;;15.81;45.35
11621;BME280;5866;49.094;11.900;2024-02-21T12:13:59;96450.59;;;15.95;44.89
11621;BME280;5866;49.094;11.900;2024-02-21T12:16:30;96451.34;;;15.53;45.15
11621;BME280;5866;49.094;11.900;2024-02-21T12:18:59;96456.50;;;15.55;45.75
11621;BME280;5866;49.094;11.900;2024-02-21T12:21:29;96450.47;;;15.67;46.42
11621;BME280;5866;49.094;11.900;2024-02-21T12:23:59;96440.88;;;15.94;43.15
11621;BME280;5866;49.094;11.900;2024-02-21T12:26:27;96437.03;;;15.61;44.75
11621;BME280;5866;49.094;11.900;2024-02-21T12:28:54;96438.72;;;15.83;44.23
11621;BME280;5866;49.094;11.900;2024-02-21T12:31:22;96429.75;;;16.33;43.19
11621;BME280;5866;49.094;11.900;2024-02-21T12:33:51;96431.03;;;15.95;44.28
11621;BME280;5866;49.094;11.900;2024-02-21T12:36:19;96435.13;;;14.96;45.79
11621;BME280;5866;49.094;11.900;2024-02-21T12:38:47;96415.81;;;16.16;44.70
11621;BME280;5866;49.094;11.900;2024-02-21T12:41:15;96411.59;;;16.77;42.93
11621;BME280;5866;49.094;11.900;2024-02-21T12:43:43;96414.69;;;16.32;43.62
11621;BME280;5866;49.094;11.900;2024-02-21T12:46:10;96405.88;;;16.52;44.83
11621;BME280;5866;49.094;11.900;2024-02-21T12:48:38;96401.72;;;15.86;46.22
11621;BME280;5866;49.094;11.900;2024-02-21T12:51:07;96394.78;;;15.92;45.95
11621;BME280;5866;49.094;11.900;2024-02-21T12:53:35;96392.84;;;15.65;46.95
11621;BME280;5866;49.094;11.900;2024-02-21T12:56:03;96388.78;;;15.69;47.58
11621;BME280;5866;49.094;11.900;2024-02-21T12:58:31;96400.06;;;15.64;46.81
11621;BME280;5866;49.094;11.900;2024-02-21T13:00:59;96386.34;;;15.53;48.04
11621;BME280;5866;49.094;11.900;2024-02-21T13:03:27;96382.41;;;16.33;46.85
11621;BME280;5866;49.094;11.900;2024-02-21T13:05:58;96377.16;;;16.74;45.31
11621;BME280;5866;49.094;11.900;2024-02-21T13:08:27;96380.84;;;17.01;45.11